Irini — SYZA — position and weather

sailwx.info

Track history (hours):
 
Tides and Currents Weather Stations Pressure Air Temp Water Temp Dewpoint Dewpoint Depression Visibility Wind Speed Wind Dir Waves Ship Positions

Irini

Last reported at 2016-May-25 04:33 UTC. Time now 2016-May-25 05:21 UTC.
Position N 37°54' E 023°33'.

Length 137 m; draft 6 m.

Type: Ship (hazmat cat A). MMSI: 240052000.

Date/timePositionNaut miles runAvg speedWind from/ knotsBaromVisibWave heightAir tempDewpointWater temp
2016-May-25 04:33N 37°54' E 023°33'6 6.4
2016-May-25 03:34N 37°50' E 023°39'1010.0
2016-May-25 02:33N 37°41' E 023°45'1010.1
2016-May-25 01:33N 37°37' E 023°56'11 9.9
2016-May-25 00:30N 37°38' E 024°09'1010.8
2016-May-24 23:33N 37°45' E 024°19'1110.5
2016-May-24 22:33N 37°52' E 024°29'31 9.8
2016-May-24 19:25N 38°23' E 024°29'14211.0
2016-May-24 06:33N 40°21' E 022°48'1010.1
2016-May-24 05:33N 40°31' E 022°49'8 8.4
2016-May-24 04:34N 40°37' E 022°56'2 2.1
2016-May-24 03:33N 40°38' E 022°53'0 0.0
2016-May-24 02:31N 40°38' E 022°53'0 0.0
2016-May-24 01:31N 40°38' E 022°53'0 0.0
2016-May-24 00:31N 40°38' E 022°53'0 0.0
2016-May-23 23:31N 40°38' E 022°53'0 0.0
2016-May-23 22:31N 40°38' E 022°53'0 0.0
2016-May-23 21:31N 40°38' E 022°53'0 0.0
2016-May-23 20:22N 40°38' E 022°53'0 0.0
2016-May-23 19:25N 40°38' E 022°53'0 0.0
2016-May-23 18:25N 40°38' E 022°53'0 0.0
2016-May-23 17:25N 40°38' E 022°53'0 0.0
2016-May-23 16:28N 40°38' E 022°53'0 0.0
2016-May-23 15:28N 40°38' E 022°53'0 0.0
2016-May-23 14:28N 40°38' E 022°53'0 0.0
2016-May-23 13:31N 40°38' E 022°53'0 0.0
2016-May-23 12:31N 40°38' E 022°53'0 0.0
2016-May-23 11:31N 40°38' E 022°53'0 0.0
2016-May-23 10:31N 40°38' E 022°53'0 0.0
2016-May-23 09:31N 40°38' E 022°53'0 0.0
2016-May-23 08:31N 40°38' E 022°53'0 0.0
2016-May-23 07:31N 40°38' E 022°53'2 2.1
2016-May-23 06:32N 40°37' E 022°56'0 0.0
2016-May-23 05:32N 40°37' E 022°56'0 0.0
2016-May-23 04:32N 40°37' E 022°56'0 0.0
2016-May-23 03:32N 40°37' E 022°56'0 0.0
2016-May-23 02:32N 40°37' E 022°56'0 0.0
2016-May-23 01:23N 40°37' E 022°56'0 0.0
2016-May-23 00:23N 40°37' E 022°56'0 0.0
2016-May-22 23:26N 40°37' E 022°56'0 0.0
2016-May-22 22:26N 40°37' E 022°56'0 0.0
2016-May-22 21:29N 40°37' E 022°56'0 0.0
2016-May-22 20:29N 40°37' E 022°56'0 0.0
2016-May-22 19:29N 40°37' E 022°56'0 0.0
2016-May-22 18:32N 40°37' E 022°56'0 0.0
2016-May-22 17:29N 40°37' E 022°56'0 0.0
2016-May-22 16:32N 40°37' E 022°56'0 0.0
2016-May-22 15:32N 40°37' E 022°56'0 0.0
2016-May-22 14:32N 40°37' E 022°56'0 0.0
2016-May-22 13:32N 40°37' E 022°56'0 0.0
2016-May-22 12:32N 40°37' E 022°56'0 0.0
2016-May-22 11:23N 40°37' E 022°56'0 0.0
2016-May-22 10:23N 40°37' E 022°56'0 0.0
2016-May-22 09:26N 40°37' E 022°56'0 0.0
2016-May-22 08:23N 40°37' E 022°56'0 0.0
2016-May-22 07:29N 40°37' E 022°56'0 0.1
2016-May-22 06:29N 40°37' E 022°56'0 0.0
2016-May-22 05:29N 40°37' E 022°56'0 0.0
2016-May-22 04:29N 40°37' E 022°56'0 0.0
2016-May-22 03:32N 40°37' E 022°56'0 0.0
2016-May-22 02:32N 40°37' E 022°56'0 0.0
2016-May-22 01:32N 40°37' E 022°56'0 0.1
2016-May-22 00:32N 40°37' E 022°56'0 0.1
2016-May-21 23:32N 40°37' E 022°56'0 0.1
2016-May-21 22:32N 40°37' E 022°56'0 0.1
2016-May-21 21:23N 40°37' E 022°56'0 0.1
2016-May-21 20:26N 40°37' E 022°56'0 0.0
2016-May-21 19:26N 40°37' E 022°56'0 0.1
2016-May-21 18:26N 40°37' E 022°56'0 0.1
2016-May-21 17:29N 40°37' E 022°56'0 0.0
2016-May-21 16:26N 40°37' E 022°56'0 0.0
2016-May-21 15:29N 40°37' E 022°56'0 0.0
2016-May-21 14:32N 40°37' E 022°56'0 0.1
2016-May-21 13:32N 40°37' E 022°56'0 0.0
2016-May-21 12:32N 40°37' E 022°56'0 0.1
2016-May-21 11:32N 40°37' E 022°56'0 0.1
2016-May-21 10:32N 40°37' E 022°56'0 0.0
2016-May-21 09:32N 40°37' E 022°56'0 0.0
2016-May-21 08:23N 40°37' E 022°56'0 0.1
2016-May-21 07:23N 40°37' E 022°56'0 0.1
2016-May-21 06:26N 40°37' E 022°56'0 0.1
2016-May-21 05:26N 40°37' E 022°56'0 0.1
2016-May-21 04:26N 40°37' E 022°56'0 0.2
2016-May-21 03:29N 40°37' E 022°56'0 0.0
2016-May-21 02:29N 40°37' E 022°56'0 0.0
2016-May-21 01:29N 40°37' E 022°56'0 0.0
2016-May-21 00:32N 40°37' E 022°56'0 0.0
2016-May-20 23:32N 40°37' E 022°56'0 0.0
2016-May-20 22:32N 40°37' E 022°56'0 0.1
2016-May-20 21:29N 40°37' E 022°56'0 0.0
2016-May-20 20:32N 40°37' E 022°56'0 0.0
2016-May-20 19:32N 40°37' E 022°56'0 0.0
2016-May-20 18:32N 40°37' E 022°56'0 0.0
2016-May-20 17:23N 40°37' E 022°56'0 0.0
2016-May-20 16:26N 40°37' E 022°56'0 0.0
2016-May-20 15:26N 40°37' E 022°56'0 0.0
2016-May-20 14:26N 40°37' E 022°56'0 0.0
2016-May-20 13:29N 40°37' E 022°56'0 0.0
2016-May-20 12:29N 40°37' E 022°56'0 0.0
2016-May-20 11:29N 40°37' E 022°56'0 0.1
2016-May-20 10:32N 40°37' E 022°56'0 0.0
2016-May-20 09:32N 40°37' E 022°56'0 0.0
2016-May-20 08:32N 40°37' E 022°56'0 0.0
2016-May-20 07:20N 40°37' E 022°56'0 0.0
2016-May-20 06:32N 40°37' E 022°56'3 1.4
2016-May-20 04:33N 40°35' E 022°54'1010.4
2016-May-20 03:33N 40°26' E 022°47'1111.4
2016-May-20 02:33N 40°16' E 022°54'16510.3
2016-May-19 10:33N 37°44' E 024°19'1311.3
2016-May-19 09:26N 37°37' E 024°05'1011.6
2016-May-19 08:33N 37°35' E 023°52'1110.7
2016-May-19 07:33N 37°42' E 023°42'1111.5
2016-May-19 06:33N 37°53' E 023°37'8 8.5
2016-May-19 05:33N 38°00' E 023°32'1 0.8
2016-May-19 04:32N 38°01' E 023°32'0 0.0
2016-May-19 03:32N 38°01' E 023°32'0 0.0
2016-May-19 02:32N 38°01' E 023°32'0 0.0
2016-May-19 01:32N 38°01' E 023°32'0 0.0
2016-May-19 00:32N 38°01' E 023°32'0 0.1
2016-May-18 23:32N 38°01' E 023°32'0 0.0
2016-May-18 22:32N 38°01' E 023°32'0 0.0
2016-May-18 21:32N 38°01' E 023°32'0 0.0
2016-May-18 20:32N 38°01' E 023°32'0 0.0
2016-May-18 19:32N 38°01' E 023°32'0 0.0
2016-May-18 18:32N 38°01' E 023°32'0 0.0
2016-May-18 17:32N 38°01' E 023°32'0 0.0
2016-May-18 16:32N 38°01' E 023°32'0 0.0
2016-May-18 15:32N 38°01' E 023°32'0 0.0
2016-May-18 14:32N 38°01' E 023°32'1 1.2
2016-May-18 13:33N 38°02' E 023°31'0 0.0
2016-May-18 12:31N 38°02' E 023°31'0 0.0
2016-May-18 11:31N 38°02' E 023°31'0 0.0
2016-May-18 10:31N 38°02' E 023°31'0 0.0
2016-May-18 09:31N 38°02' E 023°31'0 0.0
2016-May-18 08:28N 38°02' E 023°31'0 0.0
2016-May-18 07:28N 38°02' E 023°31'0 0.0
2016-May-18 06:28N 38°02' E 023°31'0 0.0
2016-May-18 05:31N 38°02' E 023°31'0 0.0
2016-May-18 04:31N 38°02' E 023°31'0 0.0
2016-May-18 03:31N 38°02' E 023°31'0 0.0
2016-May-18 02:31N 38°02' E 023°31'0 0.0
2016-May-18 01:31N 38°02' E 023°31'0 0.0
2016-May-18 00:28N 38°02' E 023°31'0 0.0
2016-May-17 23:31N 38°02' E 023°31'0 0.0
2016-May-17 22:31N 38°02' E 023°31'0 0.0
2016-May-17 21:25N 38°02' E 023°31'0 0.0
2016-May-17 20:31N 38°02' E 023°31'0 0.0
2016-May-17 19:31N 38°02' E 023°31'0 0.0
2016-May-17 18:28N 38°02' E 023°31'0 0.0
2016-May-17 17:28N 38°02' E 023°31'0 0.0
2016-May-17 16:31N 38°02' E 023°31'0 0.0
2016-May-17 15:28N 38°02' E 023°31'0 0.0
2016-May-17 14:31N 38°02' E 023°31'0 0.0
2016-May-17 13:31N 38°02' E 023°31'2 1.6
2016-May-17 12:33N 38°01' E 023°32'0 0.0
2016-May-17 11:33N 38°01' E 023°32'0 0.0
2016-May-17 10:33N 38°01' E 023°32'0 0.0
2016-May-17 09:33N 38°01' E 023°32'0 0.0
2016-May-17 08:30N 38°01' E 023°32'0 0.0
2016-May-17 07:33N 38°01' E 023°32'0 0.1
2016-May-17 06:33N 38°01' E 023°32'0 0.0
2016-May-17 05:33N 38°01' E 023°32'0 0.1
2016-May-17 04:33N 38°01' E 023°32'0 0.1
2016-May-17 03:33N 38°01' E 023°32'0 0.0
2016-May-17 02:30N 38°01' E 023°32'0 0.0
2016-May-17 01:33N 38°01' E 023°32'0 0.0
2016-May-17 00:33N 38°01' E 023°32'0 0.0
2016-May-16 23:33N 38°01' E 023°32'0 0.0
2016-May-16 22:30N 38°01' E 023°32'1 0.8
2016-May-16 21:34N 38°01' E 023°33'2 2.3
2016-May-16 20:32N 38°01' E 023°36'0 0.0
2016-May-16 19:20N 38°01' E 023°36'0 0.0
2016-May-16 18:32N 38°01' E 023°36'0 0.0
2016-May-16 17:32N 38°01' E 023°36'0 0.0
2016-May-16 16:32N 38°01' E 023°36'0 0.0
2016-May-16 15:29N 38°01' E 023°36'0 0.0
2016-May-16 14:32N 38°01' E 023°36'0 0.0
2016-May-16 13:32N 38°01' E 023°36'0 0.0
2016-May-16 12:29N 38°01' E 023°36'0 0.0
2016-May-16 11:32N 38°01' E 023°36'0 0.0
2016-May-16 10:29N 38°01' E 023°36'0 0.0
2016-May-16 09:32N 38°01' E 023°36'0 0.0
2016-May-16 08:32N 38°01' E 023°36'3 3.0
2016-May-16 07:31N 38°01' E 023°32'0 0.1
2016-May-16 06:31N 38°01' E 023°32'0 0.0
2016-May-16 05:31N 38°01' E 023°32'0 0.0
2016-May-16 04:31N 38°01' E 023°32'0 0.0
2016-May-16 03:31N 38°01' E 023°32'0 0.0
2016-May-16 02:31N 38°01' E 023°32'0 0.0
2016-May-16 01:31N 38°01' E 023°32'0 0.1
2016-May-16 00:31N 38°01' E 023°32'0 0.1
2016-May-15 23:31N 38°01' E 023°32'0 0.0
2016-May-15 22:31N 38°01' E 023°32'0 0.0
2016-May-15 21:31N 38°01' E 023°32'0 0.0
2016-May-15 20:31N 38°01' E 023°32'0 0.0
2016-May-15 19:31N 38°01' E 023°32'0 0.0
2016-May-15 18:31N 38°01' E 023°32'0 0.0
2016-May-15 17:31N 38°01' E 023°32'0 0.1
2016-May-15 16:31N 38°01' E 023°32'0 0.0
2016-May-15 15:31N 38°01' E 023°32'0 0.0
2016-May-15 14:31N 38°01' E 023°32'0 0.1
2016-May-15 13:31N 38°01' E 023°32'0 0.1
2016-May-15 12:31N 38°01' E 023°32'0 0.0
2016-May-15 11:31N 38°01' E 023°32'0 0.0
2016-May-15 10:31N 38°01' E 023°32'0 0.0
2016-May-15 09:31N 38°01' E 023°32'0 0.0
2016-May-15 08:31N 38°01' E 023°32'0 0.1
2016-May-15 07:31N 38°01' E 023°32'0 0.0
2016-May-15 06:31N 38°01' E 023°32'0 0.0
2016-May-15 05:31N 38°01' E 023°32'  
Track history (hours):
 
Tides and Currents Weather Stations Pressure Air Temp Water Temp Dewpoint Dewpoint Depression Visibility Wind Speed Wind Dir Waves Ship Positions

Irini

Last reported at 2016-May-25 04:33 UTC. Time now 2016-May-25 05:21 UTC.
Position N 37°54' E 023°33'.

Length 137 m; draft 6 m.

Type: Ship (hazmat cat A). MMSI: 240052000.

Date/timePositionNaut miles runAvg speedWind from/ knotsBaromVisibWave heightAir tempDewpointWater temp
2016-May-25 04:33N 37°54' E 023°33'6 6.4
2016-May-25 03:34N 37°50' E 023°39'1010.0
2016-May-25 02:33N 37°41' E 023°45'1010.1
2016-May-25 01:33N 37°37' E 023°56'11 9.9
2016-May-25 00:30N 37°38' E 024°09'1010.8
2016-May-24 23:33N 37°45' E 024°19'1110.5
2016-May-24 22:33N 37°52' E 024°29'31 9.8
2016-May-24 19:25N 38°23' E 024°29'14211.0
2016-May-24 06:33N 40°21' E 022°48'1010.1
2016-May-24 05:33N 40°31' E 022°49'8 8.4
2016-May-24 04:34N 40°37' E 022°56'2 2.1
2016-May-24 03:33N 40°38' E 022°53'0 0.0
2016-May-24 02:31N 40°38' E 022°53'0 0.0
2016-May-24 01:31N 40°38' E 022°53'0 0.0
2016-May-24 00:31N 40°38' E 022°53'0 0.0
2016-May-23 23:31N 40°38' E 022°53'0 0.0
2016-May-23 22:31N 40°38' E 022°53'0 0.0
2016-May-23 21:31N 40°38' E 022°53'0 0.0
2016-May-23 20:22N 40°38' E 022°53'0 0.0
2016-May-23 19:25N 40°38' E 022°53'0 0.0
2016-May-23 18:25N 40°38' E 022°53'0 0.0
2016-May-23 17:25N 40°38' E 022°53'0 0.0
2016-May-23 16:28N 40°38' E 022°53'0 0.0
2016-May-23 15:28N 40°38' E 022°53'0 0.0
2016-May-23 14:28N 40°38' E 022°53'0 0.0
2016-May-23 13:31N 40°38' E 022°53'0 0.0
2016-May-23 12:31N 40°38' E 022°53'0 0.0
2016-May-23 11:31N 40°38' E 022°53'0 0.0
2016-May-23 10:31N 40°38' E 022°53'0 0.0
2016-May-23 09:31N 40°38' E 022°53'0 0.0
2016-May-23 08:31N 40°38' E 022°53'0 0.0
2016-May-23 07:31N 40°38' E 022°53'2 2.1
2016-May-23 06:32N 40°37' E 022°56'0 0.0
2016-May-23 05:32N 40°37' E 022°56'0 0.0
2016-May-23 04:32N 40°37' E 022°56'0 0.0
2016-May-23 03:32N 40°37' E 022°56'0 0.0
2016-May-23 02:32N 40°37' E 022°56'0 0.0
2016-May-23 01:23N 40°37' E 022°56'0 0.0
2016-May-23 00:23N 40°37' E 022°56'0 0.0
2016-May-22 23:26N 40°37' E 022°56'0 0.0
2016-May-22 22:26N 40°37' E 022°56'0 0.0
2016-May-22 21:29N 40°37' E 022°56'0 0.0
2016-May-22 20:29N 40°37' E 022°56'0 0.0
2016-May-22 19:29N 40°37' E 022°56'0 0.0
2016-May-22 18:32N 40°37' E 022°56'0 0.0
2016-May-22 17:29N 40°37' E 022°56'0 0.0
2016-May-22 16:32N 40°37' E 022°56'0 0.0
2016-May-22 15:32N 40°37' E 022°56'0 0.0
2016-May-22 14:32N 40°37' E 022°56'0 0.0
2016-May-22 13:32N 40°37' E 022°56'0 0.0
2016-May-22 12:32N 40°37' E 022°56'0 0.0
2016-May-22 11:23N 40°37' E 022°56'0 0.0
2016-May-22 10:23N 40°37' E 022°56'0 0.0
2016-May-22 09:26N 40°37' E 022°56'0 0.0
2016-May-22 08:23N 40°37' E 022°56'0 0.0
2016-May-22 07:29N 40°37' E 022°56'0 0.1
2016-May-22 06:29N 40°37' E 022°56'0 0.0
2016-May-22 05:29N 40°37' E 022°56'0 0.0
2016-May-22 04:29N 40°37' E 022°56'0 0.0
2016-May-22 03:32N 40°37' E 022°56'0 0.0
2016-May-22 02:32N 40°37' E 022°56'0 0.0
2016-May-22 01:32N 40°37' E 022°56'0 0.1
2016-May-22 00:32N 40°37' E 022°56'0 0.1
2016-May-21 23:32N 40°37' E 022°56'0 0.1
2016-May-21 22:32N 40°37' E 022°56'0 0.1
2016-May-21 21:23N 40°37' E 022°56'0 0.1
2016-May-21 20:26N 40°37' E 022°56'0 0.0
2016-May-21 19:26N 40°37' E 022°56'0 0.1
2016-May-21 18:26N 40°37' E 022°56'0 0.1
2016-May-21 17:29N 40°37' E 022°56'0 0.0
2016-May-21 16:26N 40°37' E 022°56'0 0.0
2016-May-21 15:29N 40°37' E 022°56'0 0.0
2016-May-21 14:32N 40°37' E 022°56'0 0.1
2016-May-21 13:32N 40°37' E 022°56'0 0.0
2016-May-21 12:32N 40°37' E 022°56'0 0.1
2016-May-21 11:32N 40°37' E 022°56'0 0.1
2016-May-21 10:32N 40°37' E 022°56'0 0.0
2016-May-21 09:32N 40°37' E 022°56'0 0.0
2016-May-21 08:23N 40°37' E 022°56'0 0.1
2016-May-21 07:23N 40°37' E 022°56'0 0.1
2016-May-21 06:26N 40°37' E 022°56'0 0.1
2016-May-21 05:26N 40°37' E 022°56'0 0.1
2016-May-21 04:26N 40°37' E 022°56'0 0.2
2016-May-21 03:29N 40°37' E 022°56'0 0.0
2016-May-21 02:29N 40°37' E 022°56'0 0.0
2016-May-21 01:29N 40°37' E 022°56'0 0.0
2016-May-21 00:32N 40°37' E 022°56'0 0.0
2016-May-20 23:32N 40°37' E 022°56'0 0.0
2016-May-20 22:32N 40°37' E 022°56'0 0.1
2016-May-20 21:29N 40°37' E 022°56'0 0.0
2016-May-20 20:32N 40°37' E 022°56'0 0.0
2016-May-20 19:32N 40°37' E 022°56'0 0.0
2016-May-20 18:32N 40°37' E 022°56'0 0.0
2016-May-20 17:23N 40°37' E 022°56'0 0.0
2016-May-20 16:26N 40°37' E 022°56'0 0.0
2016-May-20 15:26N 40°37' E 022°56'0 0.0
2016-May-20 14:26N 40°37' E 022°56'0 0.0
2016-May-20 13:29N 40°37' E 022°56'0 0.0
2016-May-20 12:29N 40°37' E 022°56'0 0.0
2016-May-20 11:29N 40°37' E 022°56'0 0.1
2016-May-20 10:32N 40°37' E 022°56'0 0.0
2016-May-20 09:32N 40°37' E 022°56'0 0.0
2016-May-20 08:32N 40°37' E 022°56'0 0.0
2016-May-20 07:20N 40°37' E 022°56'0 0.0
2016-May-20 06:32N 40°37' E 022°56'3 1.4
2016-May-20 04:33N 40°35' E 022°54'1010.4
2016-May-20 03:33N 40°26' E 022°47'1111.4
2016-May-20 02:33N 40°16' E 022°54'16510.3
2016-May-19 10:33N 37°44' E 024°19'1311.3
2016-May-19 09:26N 37°37' E 024°05'1011.6
2016-May-19 08:33N 37°35' E 023°52'1110.7
2016-May-19 07:33N 37°42' E 023°42'1111.5
2016-May-19 06:33N 37°53' E 023°37'8 8.5
2016-May-19 05:33N 38°00' E 023°32'1 0.8
2016-May-19 04:32N 38°01' E 023°32'0 0.0
2016-May-19 03:32N 38°01' E 023°32'0 0.0
2016-May-19 02:32N 38°01' E 023°32'0 0.0
2016-May-19 01:32N 38°01' E 023°32'0 0.0
2016-May-19 00:32N 38°01' E 023°32'0 0.1
2016-May-18 23:32N 38°01' E 023°32'0 0.0
2016-May-18 22:32N 38°01' E 023°32'0 0.0
2016-May-18 21:32N 38°01' E 023°32'0 0.0
2016-May-18 20:32N 38°01' E 023°32'0 0.0
2016-May-18 19:32N 38°01' E 023°32'0 0.0
2016-May-18 18:32N 38°01' E 023°32'0 0.0
2016-May-18 17:32N 38°01' E 023°32'0 0.0
2016-May-18 16:32N 38°01' E 023°32'0 0.0
2016-May-18 15:32N 38°01' E 023°32'0 0.0
2016-May-18 14:32N 38°01' E 023°32'1 1.2
2016-May-18 13:33N 38°02' E 023°31'0 0.0
2016-May-18 12:31N 38°02' E 023°31'0 0.0
2016-May-18 11:31N 38°02' E 023°31'0 0.0
2016-May-18 10:31N 38°02' E 023°31'0 0.0
2016-May-18 09:31N 38°02' E 023°31'0 0.0
2016-May-18 08:28N 38°02' E 023°31'0 0.0
2016-May-18 07:28N 38°02' E 023°31'0 0.0
2016-May-18 06:28N 38°02' E 023°31'0 0.0
2016-May-18 05:31N 38°02' E 023°31'0 0.0
2016-May-18 04:31N 38°02' E 023°31'0 0.0
2016-May-18 03:31N 38°02' E 023°31'0 0.0
2016-May-18 02:31N 38°02' E 023°31'0 0.0
2016-May-18 01:31N 38°02' E 023°31'0 0.0
2016-May-18 00:28N 38°02' E 023°31'0 0.0
2016-May-17 23:31N 38°02' E 023°31'0 0.0
2016-May-17 22:31N 38°02' E 023°31'0 0.0
2016-May-17 21:25N 38°02' E 023°31'0 0.0
2016-May-17 20:31N 38°02' E 023°31'0 0.0
2016-May-17 19:31N 38°02' E 023°31'0 0.0
2016-May-17 18:28N 38°02' E 023°31'0 0.0
2016-May-17 17:28N 38°02' E 023°31'0 0.0
2016-May-17 16:31N 38°02' E 023°31'0 0.0
2016-May-17 15:28N 38°02' E 023°31'0 0.0
2016-May-17 14:31N 38°02' E 023°31'0 0.0
2016-May-17 13:31N 38°02' E 023°31'2 1.6
2016-May-17 12:33N 38°01' E 023°32'0 0.0
2016-May-17 11:33N 38°01' E 023°32'0 0.0
2016-May-17 10:33N 38°01' E 023°32'0 0.0
2016-May-17 09:33N 38°01' E 023°32'0 0.0
2016-May-17 08:30N 38°01' E 023°32'0 0.0
2016-May-17 07:33N 38°01' E 023°32'0 0.1
2016-May-17 06:33N 38°01' E 023°32'0 0.0
2016-May-17 05:33N 38°01' E 023°32'0 0.1
2016-May-17 04:33N 38°01' E 023°32'0 0.1
2016-May-17 03:33N 38°01' E 023°32'0 0.0
2016-May-17 02:30N 38°01' E 023°32'0 0.0
2016-May-17 01:33N 38°01' E 023°32'0 0.0
2016-May-17 00:33N 38°01' E 023°32'0 0.0
2016-May-16 23:33N 38°01' E 023°32'0 0.0
2016-May-16 22:30N 38°01' E 023°32'1 0.8
2016-May-16 21:34N 38°01' E 023°33'2 2.3
2016-May-16 20:32N 38°01' E 023°36'0 0.0
2016-May-16 19:20N 38°01' E 023°36'0 0.0
2016-May-16 18:32N 38°01' E 023°36'0 0.0
2016-May-16 17:32N 38°01' E 023°36'0 0.0
2016-May-16 16:32N 38°01' E 023°36'0 0.0
2016-May-16 15:29N 38°01' E 023°36'0 0.0
2016-May-16 14:32N 38°01' E 023°36'0 0.0
2016-May-16 13:32N 38°01' E 023°36'0 0.0
2016-May-16 12:29N 38°01' E 023°36'0 0.0
2016-May-16 11:32N 38°01' E 023°36'0 0.0
2016-May-16 10:29N 38°01' E 023°36'0 0.0
2016-May-16 09:32N 38°01' E 023°36'0 0.0
2016-May-16 08:32N 38°01' E 023°36'3 3.0
2016-May-16 07:31N 38°01' E 023°32'0 0.1
2016-May-16 06:31N 38°01' E 023°32'0 0.0
2016-May-16 05:31N 38°01' E 023°32'0 0.0
2016-May-16 04:31N 38°01' E 023°32'0 0.0
2016-May-16 03:31N 38°01' E 023°32'0 0.0
2016-May-16 02:31N 38°01' E 023°32'0 0.0
2016-May-16 01:31N 38°01' E 023°32'0 0.1
2016-May-16 00:31N 38°01' E 023°32'0 0.1
2016-May-15 23:31N 38°01' E 023°32'0 0.0
2016-May-15 22:31N 38°01' E 023°32'0 0.0
2016-May-15 21:31N 38°01' E 023°32'0 0.0
2016-May-15 20:31N 38°01' E 023°32'0 0.0
2016-May-15 19:31N 38°01' E 023°32'0 0.0
2016-May-15 18:31N 38°01' E 023°32'0 0.0
2016-May-15 17:31N 38°01' E 023°32'0 0.1
2016-May-15 16:31N 38°01' E 023°32'0 0.0
2016-May-15 15:31N 38°01' E 023°32'0 0.0
2016-May-15 14:31N 38°01' E 023°32'0 0.1
2016-May-15 13:31N 38°01' E 023°32'0 0.1
2016-May-15 12:31N 38°01' E 023°32'0 0.0
2016-May-15 11:31N 38°01' E 023°32'0 0.0
2016-May-15 10:31N 38°01' E 023°32'0 0.0
2016-May-15 09:31N 38°01' E 023°32'0 0.0
2016-May-15 08:31N 38°01' E 023°32'0 0.1
2016-May-15 07:31N 38°01' E 023°32'0 0.0
2016-May-15 06:31N 38°01' E 023°32'0 0.0
2016-May-15 05:31N 38°01' E 023°32'  

Dump ship's entire track history